sensor_id;sensor_type;location;lat;lon;timestamp;P1;durP1;ratioP1;P2;durP2;ratioP2
30862;SDS011;17573;55.922;37.540;2023-04-03T00:01:28;34.83;;;14.25;;
30862;SDS011;17573;55.922;37.540;2023-04-03T00:03:54;26.80;;;14.93;;
30862;SDS011;17573;55.922;37.540;2023-04-03T00:06:21;24.55;;;14.38;;
30862;SDS011;17573;55.922;37.540;2023-04-03T00:08:47;26.50;;;13.43;;
30862;SDS011;17573;55.922;37.540;2023-04-03T00:11:13;25.15;;;11.65;;
30862;SDS011;17573;55.922;37.540;2023-04-03T00:13:39;22.17;;;13.00;;
30862;SDS011;17573;55.922;37.540;2023-04-03T00:16:05;29.65;;;13.23;;
30862;SDS011;17573;55.922;37.540;2023-04-03T00:18:32;34.72;;;14.35;;
30862;SDS011;17573;55.922;37.540;2023-04-03T00:20:58;33.08;;;16.00;;
30862;SDS011;17573;55.922;37.540;2023-04-03T00:23:24;25.23;;;15.10;;
30862;SDS011;17573;55.922;37.540;2023-04-03T00:25:50;28.38;;;14.13;;
30862;SDS011;17573;55.922;37.540;2023-04-03T00:28:16;35.22;;;16.55;;
30862;SDS011;17573;55.922;37.540;2023-04-03T00:30:42;25.83;;;14.45;;
30862;SDS011;17573;55.922;37.540;2023-04-03T00:33:10;23.63;;;13.80;;
30862;SDS011;17573;55.922;37.540;2023-04-03T00:35:37;31.35;;;13.55;;
30862;SDS011;17573;55.922;37.540;2023-04-03T00:38:03;28.67;;;15.00;;
30862;SDS011;17573;55.922;37.540;2023-04-03T00:40:32;29.67;;;15.07;;
30862;SDS011;17573;55.922;37.540;2023-04-03T00:43:00;27.73;;;15.68;;
30862;SDS011;17573;55.922;37.540;2023-04-03T00:45:35;30.27;;;14.07;;
30862;SDS011;17573;55.922;37.540;2023-04-03T00:48:04;31.30;;;16.65;;
30862;SDS011;17573;55.922;37.540;2023-04-03T00:50:31;32.05;;;15.98;;
30862;SDS011;17573;55.922;37.540;2023-04-03T00:52:58;26.60;;;14.80;;
30862;SDS011;17573;55.922;37.540;2023-04-03T00:55:24;33.05;;;16.67;;
30862;SDS011;17573;55.922;37.540;2023-04-03T00:57:51;26.65;;;14.25;;
30862;SDS011;17573;55.922;37.540;2023-04-03T01:00:19;26.60;;;14.50;;
30862;SDS011;17573;55.922;37.540;2023-04-03T01:02:47;32.58;;;15.75;;
30862;SDS011;17573;55.922;37.540;2023-04-03T01:05:14;28.50;;;16.58;;
30862;SDS011;17573;55.922;37.540;2023-04-03T01:07:43;30.42;;;14.70;;
30862;SDS011;17573;55.922;37.540;2023-04-03T01:10:10;23.00;;;15.32;;
30862;SDS011;17573;55.922;37.540;2023-04-03T01:12:39;29.02;;;16.38;;
30862;SDS011;17573;55.922;37.540;2023-04-03T01:15:08;28.67;;;17.42;;
30862;SDS011;17573;55.922;37.540;2023-04-03T01:17:37;23.90;;;16.77;;
30862;SDS011;17573;55.922;37.540;2023-04-03T01:22:40;34.33;;;19.77;;
30862;SDS011;17573;55.922;37.540;2023-04-03T01:25:08;30.60;;;19.58;;
30862;SDS011;17573;55.922;37.540;2023-04-03T01:27:34;38.60;;;23.00;;
30862;SDS011;17573;55.922;37.540;2023-04-03T01:30:00;36.35;;;21.77;;
30862;SDS011;17573;55.922;37.540;2023-04-03T01:32:28;43.88;;;24.52;;
30862;SDS011;17573;55.922;37.540;2023-04-03T01:34:54;40.10;;;24.30;;
30862;SDS011;17573;55.922;37.540;2023-04-03T01:37:20;30.83;;;21.38;;
30862;SDS011;17573;55.922;37.540;2023-04-03T01:39:46;36.03;;;22.27;;
30862;SDS011;17573;55.922;37.540;2023-04-03T01:42:12;33.60;;;22.55;;
30862;SDS011;17573;55.922;37.540;2023-04-03T01:44:41;31.13;;;21.83;;
30862;SDS011;17573;55.922;37.540;2023-04-03T01:47:07;33.13;;;21.40;;
30862;SDS011;17573;55.922;37.540;2023-04-03T01:49:33;35.58;;;22.40;;
30862;SDS011;17573;55.922;37.540;2023-04-03T01:51:59;36.55;;;21.30;;
30862;SDS011;17573;55.922;37.540;2023-04-03T01:54:25;31.85;;;20.20;;
30862;SDS011;17573;55.922;37.540;2023-04-03T01:56:51;50.42;;;22.63;;
30862;SDS011;17573;55.922;37.540;2023-04-03T01:59:19;30.58;;;19.70;;
30862;SDS011;17573;55.922;37.540;2023-04-03T02:01:45;32.40;;;20.27;;
30862;SDS011;17573;55.922;37.540;2023-04-03T02:04:11;29.83;;;19.02;;
30862;SDS011;17573;55.922;37.540;2023-04-03T02:06:37;34.80;;;20.55;;
30862;SDS011;17573;55.922;37.540;2023-04-03T02:09:03;36.08;;;18.73;;
30862;SDS011;17573;55.922;37.540;2023-04-03T02:11:30;32.15;;;19.73;;
30862;SDS011;17573;55.922;37.540;2023-04-03T02:13:56;34.03;;;19.08;;
30862;SDS011;17573;55.922;37.540;2023-04-03T02:16:23;46.22;;;19.23;;
30862;SDS011;17573;55.922;37.540;2023-04-03T02:18:49;27.50;;;17.38;;
30862;SDS011;17573;55.922;37.540;2023-04-03T02:21:16;35.17;;;17.42;;
30862;SDS011;17573;55.922;37.540;2023-04-03T02:23:42;35.97;;;17.83;;
30862;SDS011;17573;55.922;37.540;2023-04-03T02:26:09;34.75;;;19.33;;
30862;SDS011;17573;55.922;37.540;2023-04-03T02:28:37;32.03;;;16.85;;
30862;SDS011;17573;55.922;37.540;2023-04-03T02:31:03;30.48;;;16.27;;
30862;SDS011;17573;55.922;37.540;2023-04-03T02:33:32;25.73;;;17.13;;
30862;SDS011;17573;55.922;37.540;2023-04-03T02:35:58;26.75;;;16.40;;
30862;SDS011;17573;55.922;37.540;2023-04-03T02:38:24;27.50;;;16.52;;
30862;SDS011;17573;55.922;37.540;2023-04-03T02:40:50;33.75;;;17.65;;
30862;SDS011;17573;55.922;37.540;2023-04-03T02:43:16;34.28;;;18.50;;
30862;SDS011;17573;55.922;37.540;2023-04-03T02:45:43;41.47;;;18.50;;
30862;SDS011;17573;55.922;37.540;2023-04-03T02:48:09;36.42;;;18.90;;
30862;SDS011;17573;55.922;37.540;2023-04-03T02:50:35;27.05;;;17.55;;
30862;SDS011;17573;55.922;37.540;2023-04-03T02:53:01;36.22;;;17.38;;
30862;SDS011;17573;55.922;37.540;2023-04-03T02:55:27;39.55;;;18.60;;
30862;SDS011;17573;55.922;37.540;2023-04-03T02:57:54;35.35;;;17.70;;
30862;SDS011;17573;55.922;37.540;2023-04-03T03:00:21;28.98;;;16.50;;
30862;SDS011;17573;55.922;37.540;2023-04-03T03:02:48;36.95;;;17.10;;
30862;SDS011;17573;55.922;37.540;2023-04-03T03:05:14;38.22;;;17.80;;
30862;SDS011;17573;55.922;37.540;2023-04-03T03:07:40;35.50;;;17.63;;
30862;SDS011;17573;55.922;37.540;2023-04-03T03:10:06;36.70;;;16.67;;
30862;SDS011;17573;55.922;37.540;2023-04-03T03:12:32;27.88;;;17.02;;
30862;SDS011;17573;55.922;37.540;2023-04-03T03:14:57;36.15;;;15.63;;
30862;SDS011;17573;55.922;37.540;2023-04-03T03:17:23;30.08;;;16.23;;
30862;SDS011;17573;55.922;37.540;2023-04-03T03:19:49;34.90;;;17.05;;
30862;SDS011;17573;55.922;37.540;2023-04-03T03:22:16;29.30;;;15.55;;
30862;SDS011;17573;55.922;37.540;2023-04-03T03:24:42;30.73;;;15.75;;
30862;SDS011;17573;55.922;37.540;2023-04-03T03:27:08;28.00;;;16.02;;
30862;SDS011;17573;55.922;37.540;2023-04-03T03:29:34;30.77;;;17.20;;
30862;SDS011;17573;55.922;37.540;2023-04-03T03:32:00;33.05;;;18.15;;
30862;SDS011;17573;55.922;37.540;2023-04-03T03:34:26;26.60;;;17.20;;
30862;SDS011;17573;55.922;37.540;2023-04-03T03:36:52;29.67;;;16.63;;
30862;SDS011;17573;55.922;37.540;2023-04-03T03:39:18;32.33;;;17.02;;
30862;SDS011;17573;55.922;37.540;2023-04-03T03:41:44;37.92;;;17.65;;
30862;SDS011;17573;55.922;37.540;2023-04-03T03:44:10;39.08;;;16.45;;
30862;SDS011;17573;55.922;37.540;2023-04-03T03:46:36;31.08;;;17.67;;
30862;SDS011;17573;55.922;37.540;2023-04-03T03:49:03;30.92;;;16.98;;
30862;SDS011;17573;55.922;37.540;2023-04-03T03:51:28;28.83;;;16.92;;
30862;SDS011;17573;55.922;37.540;2023-04-03T03:53:56;32.10;;;19.27;;
30862;SDS011;17573;55.922;37.540;2023-04-03T03:56:21;29.63;;;17.83;;
30862;SDS011;17573;55.922;37.540;2023-04-03T03:58:48;30.55;;;18.55;;
30862;SDS011;17573;55.922;37.540;2023-04-03T04:01:14;36.28;;;18.02;;
30862;SDS011;17573;55.922;37.540;2023-04-03T04:03:46;33.58;;;17.00;;
30862;SDS011;17573;55.922;37.540;2023-04-03T04:06:16;46.92;;;18.20;;
30862;SDS011;17573;55.922;37.540;2023-04-03T04:08:42;45.25;;;18.23;;
30862;SDS011;17573;55.922;37.540;2023-04-03T04:11:10;26.00;;;18.58;;
30862;SDS011;17573;55.922;37.540;2023-04-03T04:13:37;33.80;;;19.25;;
30862;SDS011;17573;55.922;37.540;2023-04-03T04:16:03;39.17;;;22.20;;
30862;SDS011;17573;55.922;37.540;2023-04-03T04:18:31;33.08;;;20.45;;
30862;SDS011;17573;55.922;37.540;2023-04-03T04:20:57;34.70;;;20.50;;
30862;SDS011;17573;55.922;37.540;2023-04-03T04:23:23;34.35;;;21.63;;
30862;SDS011;17573;55.922;37.540;2023-04-03T04:25:50;39.05;;;22.30;;
30862;SDS011;17573;55.922;37.540;2023-04-03T04:28:16;34.15;;;21.13;;
30862;SDS011;17573;55.922;37.540;2023-04-03T04:30:43;38.70;;;22.05;;
30862;SDS011;17573;55.922;37.540;2023-04-03T04:33:09;43.45;;;23.65;;
30862;SDS011;17573;55.922;37.540;2023-04-03T04:35:35;37.30;;;21.90;;
30862;SDS011;17573;55.922;37.540;2023-04-03T04:38:02;32.85;;;21.45;;
30862;SDS011;17573;55.922;37.540;2023-04-03T04:40:29;42.92;;;23.63;;
30862;SDS011;17573;55.922;37.540;2023-04-03T04:42:55;37.75;;;22.25;;
30862;SDS011;17573;55.922;37.540;2023-04-03T04:45:21;44.50;;;24.77;;
30862;SDS011;17573;55.922;37.540;2023-04-03T04:47:47;61.50;;;25.08;;
30862;SDS011;17573;55.922;37.540;2023-04-03T04:50:13;38.78;;;24.35;;
30862;SDS011;17573;55.922;37.540;2023-04-03T04:52:40;48.30;;;25.45;;
30862;SDS011;17573;55.922;37.540;2023-04-03T04:55:07;53.60;;;24.45;;
30862;SDS011;17573;55.922;37.540;2023-04-03T04:57:33;47.95;;;25.38;;
30862;SDS011;17573;55.922;37.540;2023-04-03T05:00:00;48.75;;;24.73;;
30862;SDS011;17573;55.922;37.540;2023-04-03T05:02:26;50.47;;;24.95;;
30862;SDS011;17573;55.922;37.540;2023-04-03T05:04:54;49.85;;;24.40;;
30862;SDS011;17573;55.922;37.540;2023-04-03T05:07:26;46.13;;;23.70;;
30862;SDS011;17573;55.922;37.540;2023-04-03T05:09:52;42.90;;;22.80;;
30862;SDS011;17573;55.922;37.540;2023-04-03T05:12:17;44.22;;;25.27;;
30862;SDS011;17573;55.922;37.540;2023-04-03T05:14:50;41.15;;;23.73;;
30862;SDS011;17573;55.922;37.540;2023-04-03T05:17:16;53.40;;;23.40;;
30862;SDS011;17573;55.922;37.540;2023-04-03T05:19:47;45.65;;;22.10;;
30862;SDS011;17573;55.922;37.540;2023-04-03T05:22:15;46.22;;;20.58;;
30862;SDS011;17573;55.922;37.540;2023-04-03T05:24:40;35.03;;;21.42;;
30862;SDS011;17573;55.922;37.540;2023-04-03T05:27:07;37.50;;;21.85;;
30862;SDS011;17573;55.922;37.540;2023-04-03T05:29:37;50.55;;;22.65;;
30862;SDS011;17573;55.922;37.540;2023-04-03T05:32:04;52.92;;;22.10;;
30862;SDS011;17573;55.922;37.540;2023-04-03T05:34:30;51.20;;;21.08;;
30862;SDS011;17573;55.922;37.540;2023-04-03T05:36:56;46.70;;;22.48;;
30862;SDS011;17573;55.922;37.540;2023-04-03T05:39:23;47.53;;;22.67;;
30862;SDS011;17573;55.922;37.540;2023-04-03T05:41:50;53.95;;;21.50;;
30862;SDS011;17573;55.922;37.540;2023-04-03T05:44:16;46.67;;;21.40;;
30862;SDS011;17573;55.922;37.540;2023-04-03T05:46:43;49.88;;;21.73;;
30862;SDS011;17573;55.922;37.540;2023-04-03T05:49:10;50.13;;;21.30;;
30862;SDS011;17573;55.922;37.540;2023-04-03T05:51:37;52.05;;;21.50;;
30862;SDS011;17573;55.922;37.540;2023-04-03T05:54:23;52.17;;;22.67;;
30862;SDS011;17573;55.922;37.540;2023-04-03T05:59:21;35.88;;;19.02;;
30862;SDS011;17573;55.922;37.540;2023-04-03T06:01:49;36.38;;;18.10;;
30862;SDS011;17573;55.922;37.540;2023-04-03T06:04:16;56.47;;;20.73;;
30862;SDS011;17573;55.922;37.540;2023-04-03T06:09:18;40.28;;;19.70;;
30862;SDS011;17573;55.922;37.540;2023-04-03T06:11:48;43.13;;;21.30;;
30862;SDS011;17573;55.922;37.540;2023-04-03T06:14:15;36.58;;;19.20;;
30862;SDS011;17573;55.922;37.540;2023-04-03T06:16:41;41.92;;;20.90;;
30862;SDS011;17573;55.922;37.540;2023-04-03T06:19:07;40.30;;;19.60;;
30862;SDS011;17573;55.922;37.540;2023-04-03T06:21:35;35.58;;;18.77;;
30862;SDS011;17573;55.922;37.540;2023-04-03T06:24:02;53.60;;;19.40;;
30862;SDS011;17573;55.922;37.540;2023-04-03T06:26:32;35.88;;;19.65;;
30862;SDS011;17573;55.922;37.540;2023-04-03T06:28:59;30.75;;;18.17;;
30862;SDS011;17573;55.922;37.540;2023-04-03T06:31:25;38.20;;;19.48;;
30862;SDS011;17573;55.922;37.540;2023-04-03T06:33:51;53.38;;;21.38;;
30862;SDS011;17573;55.922;37.540;2023-04-03T06:36:18;38.25;;;19.33;;
30862;SDS011;17573;55.922;37.540;2023-04-03T06:38:48;36.13;;;19.13;;
30862;SDS011;17573;55.922;37.540;2023-04-03T06:41:14;42.97;;;21.38;;
30862;SDS011;17573;55.922;37.540;2023-04-03T06:43:42;29.48;;;18.42;;
30862;SDS011;17573;55.922;37.540;2023-04-03T06:46:19;48.13;;;20.40;;
30862;SDS011;17573;55.922;37.540;2023-04-03T06:48:46;33.63;;;19.08;;
30862;SDS011;17573;55.922;37.540;2023-04-03T06:51:19;42.67;;;21.48;;
30862;SDS011;17573;55.922;37.540;2023-04-03T06:53:49;42.25;;;21.63;;
30862;SDS011;17573;55.922;37.540;2023-04-03T06:56:16;32.17;;;20.02;;
30862;SDS011;17573;55.922;37.540;2023-04-03T06:58:42;38.42;;;21.50;;
30862;SDS011;17573;55.922;37.540;2023-04-03T07:01:12;34.17;;;20.80;;
30862;SDS011;17573;55.922;37.540;2023-04-03T07:03:39;56.92;;;22.48;;
30862;SDS011;17573;55.922;37.540;2023-04-03T07:06:05;49.80;;;21.95;;
30862;SDS011;17573;55.922;37.540;2023-04-03T07:08:32;50.22;;;22.48;;
30862;SDS011;17573;55.922;37.540;2023-04-03T07:10:59;41.28;;;20.75;;
30862;SDS011;17573;55.922;37.540;2023-04-03T07:13:25;54.90;;;22.50;;
30862;SDS011;17573;55.922;37.540;2023-04-03T07:15:51;53.17;;;21.52;;
30862;SDS011;17573;55.922;37.540;2023-04-03T07:18:18;41.15;;;21.25;;
30862;SDS011;17573;55.922;37.540;2023-04-03T07:20:44;31.52;;;18.52;;
30862;SDS011;17573;55.922;37.540;2023-04-03T07:23:10;39.08;;;18.92;;
30862;SDS011;17573;55.922;37.540;2023-04-03T07:25:36;42.63;;;19.80;;
30862;SDS011;17573;55.922;37.540;2023-04-03T07:28:03;38.15;;;17.98;;
30862;SDS011;17573;55.922;37.540;2023-04-03T07:30:29;39.45;;;19.73;;
30862;SDS011;17573;55.922;37.540;2023-04-03T07:32:55;46.03;;;19.83;;
30862;SDS011;17573;55.922;37.540;2023-04-03T07:35:21;40.17;;;20.60;;
30862;SDS011;17573;55.922;37.540;2023-04-03T07:37:47;52.58;;;21.80;;
30862;SDS011;17573;55.922;37.540;2023-04-03T07:40:13;45.92;;;20.42;;
30862;SDS011;17573;55.922;37.540;2023-04-03T07:42:40;42.50;;;20.83;;
30862;SDS011;17573;55.922;37.540;2023-04-03T07:45:06;48.55;;;19.88;;
30862;SDS011;17573;55.922;37.540;2023-04-03T07:47:32;53.60;;;21.10;;
30862;SDS011;17573;55.922;37.540;2023-04-03T07:49:57;49.88;;;19.17;;
30862;SDS011;17573;55.922;37.540;2023-04-03T07:52:24;47.05;;;18.45;;
30862;SDS011;17573;55.922;37.540;2023-04-03T07:54:50;44.15;;;19.38;;
30862;SDS011;17573;55.922;37.540;2023-04-03T07:57:16;39.30;;;18.30;;
30862;SDS011;17573;55.922;37.540;2023-04-03T07:59:42;61.80;;;19.33;;
30862;SDS011;17573;55.922;37.540;2023-04-03T08:02:09;43.90;;;19.33;;
30862;SDS011;17573;55.922;37.540;2023-04-03T08:04:35;41.33;;;18.50;;
30862;SDS011;17573;55.922;37.540;2023-04-03T08:07:01;41.20;;;19.02;;
30862;SDS011;17573;55.922;37.540;2023-04-03T08:09:27;33.63;;;18.20;;
30862;SDS011;17573;55.922;37.540;2023-04-03T08:11:53;43.30;;;17.08;;
30862;SDS011;17573;55.922;37.540;2023-04-03T08:14:19;52.97;;;19.08;;
30862;SDS011;17573;55.922;37.540;2023-04-03T08:16:46;44.40;;;19.15;;
30862;SDS011;17573;55.922;37.540;2023-04-03T08:19:12;40.78;;;18.75;;
30862;SDS011;17573;55.922;37.540;2023-04-03T08:21:41;56.33;;;18.65;;
30862;SDS011;17573;55.922;37.540;2023-04-03T08:24:08;31.08;;;18.00;;
30862;SDS011;17573;55.922;37.540;2023-04-03T08:26:34;42.03;;;17.50;;
30862;SDS011;17573;55.922;37.540;2023-04-03T08:29:00;37.05;;;18.52;;
30862;SDS011;17573;55.922;37.540;2023-04-03T08:31:26;39.28;;;19.50;;
30862;SDS011;17573;55.922;37.540;2023-04-03T08:33:53;52.75;;;19.42;;
30862;SDS011;17573;55.922;37.540;2023-04-03T08:36:20;30.40;;;18.42;;
30862;SDS011;17573;55.922;37.540;2023-04-03T08:38:47;51.35;;;19.15;;
30862;SDS011;17573;55.922;37.540;2023-04-03T08:41:15;39.47;;;22.17;;
30862;SDS011;17573;55.922;37.540;2023-04-03T08:46:14;34.13;;;17.90;;
30862;SDS011;17573;55.922;37.540;2023-04-03T08:48:42;44.80;;;18.38;;
30862;SDS011;17573;55.922;37.540;2023-04-03T08:51:10;38.95;;;18.58;;
30862;SDS011;17573;55.922;37.540;2023-04-03T08:53:42;43.40;;;19.77;;
30862;SDS011;17573;55.922;37.540;2023-04-03T08:56:11;53.88;;;21.80;;
30862;SDS011;17573;55.922;37.540;2023-04-03T08:58:52;30.80;;;17.85;;
30862;SDS011;17573;55.922;37.540;2023-04-03T09:01:30;35.97;;;17.52;;
30862;SDS011;17573;55.922;37.540;2023-04-03T09:04:02;31.92;;;17.73;;
30862;SDS011;17573;55.922;37.540;2023-04-03T09:06:32;49.47;;;18.52;;
30862;SDS011;17573;55.922;37.540;2023-04-03T09:11:41;37.17;;;17.92;;
30862;SDS011;17573;55.922;37.540;2023-04-03T09:16:49;36.08;;;17.02;;
30862;SDS011;17573;55.922;37.540;2023-04-03T09:19:41;50.72;;;19.52;;
30862;SDS011;17573;55.922;37.540;2023-04-03T09:24:41;65.55;;;19.60;;
30862;SDS011;17573;55.922;37.540;2023-04-03T09:27:10;43.70;;;18.95;;
30862;SDS011;17573;55.922;37.540;2023-04-03T09:29:41;44.70;;;18.98;;
30862;SDS011;17573;55.922;37.540;2023-04-03T09:32:28;41.72;;;17.05;;
30862;SDS011;17573;55.922;37.540;2023-04-03T09:34:55;56.30;;;18.90;;
30862;SDS011;17573;55.922;37.540;2023-04-03T09:37:40;48.47;;;19.23;;
30862;SDS011;17573;55.922;37.540;2023-04-03T09:40:42;67.90;;;19.85;;
30862;SDS011;17573;55.922;37.540;2023-04-03T09:43:27;57.60;;;18.27;;
30862;SDS011;17573;55.922;37.540;2023-04-03T09:46:15;43.83;;;17.52;;
30862;SDS011;17573;55.922;37.540;2023-04-03T09:48:50;34.38;;;18.13;;
30862;SDS011;17573;55.922;37.540;2023-04-03T09:51:25;33.72;;;19.08;;
30862;SDS011;17573;55.922;37.540;2023-04-03T09:53:54;68.68;;;22.10;;
30862;SDS011;17573;55.922;37.540;2023-04-03T09:56:27;48.10;;;17.42;;
30862;SDS011;17573;55.922;37.540;2023-04-03T10:06:32;48.90;;;16.88;;
30862;SDS011;17573;55.922;37.540;2023-04-03T10:09:10;40.78;;;17.65;;
30862;SDS011;17573;55.922;37.540;2023-04-03T10:11:56;44.05;;;19.40;;
30862;SDS011;17573;55.922;37.540;2023-04-03T10:14:23;36.10;;;15.90;;
30862;SDS011;17573;55.922;37.540;2023-04-03T10:16:54;38.75;;;16.83;;
30862;SDS011;17573;55.922;37.540;2023-04-03T10:19:36;25.38;;;17.08;;
30862;SDS011;17573;55.922;37.540;2023-04-03T10:35:43;48.60;;;17.85;;
30862;SDS011;17573;55.922;37.540;2023-04-03T10:38:16;60.30;;;18.63;;
30862;SDS011;17573;55.922;37.540;2023-04-03T10:40:52;66.45;;;19.00;;
30862;SDS011;17573;55.922;37.540;2023-04-03T10:46:15;47.53;;;19.05;;
30862;SDS011;17573;55.922;37.540;2023-04-03T10:51:43;37.85;;;19.65;;
30862;SDS011;17573;55.922;37.540;2023-04-03T10:54:19;58.92;;;21.33;;
30862;SDS011;17573;55.922;37.540;2023-04-03T10:56:52;49.55;;;22.42;;
30862;SDS011;17573;55.922;37.540;2023-04-03T11:02:07;31.35;;;15.10;;
30862;SDS011;17573;55.922;37.540;2023-04-03T11:04:44;20.25;;;10.98;;
30862;SDS011;17573;55.922;37.540;2023-04-03T11:07:23;14.77;;;10.32;;
30862;SDS011;17573;55.922;37.540;2023-04-03T11:12:25;42.90;;;15.60;;
30862;SDS011;17573;55.922;37.540;2023-04-03T11:14:55;22.52;;;11.43;;
30862;SDS011;17573;55.922;37.540;2023-04-03T11:17:25;29.70;;;15.88;;
30862;SDS011;17573;55.922;37.540;2023-04-03T11:21:01;31.92;;;13.20;;
30862;SDS011;17573;55.922;37.540;2023-04-03T11:23:19;26.48;;;12.90;;
30862;SDS011;17573;55.922;37.540;2023-04-03T11:25:49;34.20;;;12.32;;
30862;SDS011;17573;55.922;37.540;2023-04-03T11:28:16;37.53;;;14.23;;
30862;SDS011;17573;55.922;37.540;2023-04-03T11:36:12;20.65;;;9.60;;
30862;SDS011;17573;55.922;37.540;2023-04-03T11:38:57;39.42;;;22.30;;
30862;SDS011;17573;55.922;37.540;2023-04-03T11:41:30;25.73;;;13.80;;
30862;SDS011;17573;55.922;37.540;2023-04-03T11:44:01;36.47;;;12.50;;
30862;SDS011;17573;55.922;37.540;2023-04-03T11:46:51;32.33;;;12.20;;
30862;SDS011;17573;55.922;37.540;2023-04-03T12:13:40;34.63;;;12.65;;
30862;SDS011;17573;55.922;37.540;2023-04-03T12:16:19;25.70;;;12.27;;
30862;SDS011;17573;55.922;37.540;2023-04-03T12:23:57;24.85;;;12.95;;
30862;SDS011;17573;55.922;37.540;2023-04-03T12:26:48;32.67;;;13.75;;
30862;SDS011;17573;55.922;37.540;2023-04-03T12:40:31;19.48;;;10.40;;
30862;SDS011;17573;55.922;37.540;2023-04-03T12:45:48;39.05;;;12.30;;
30862;SDS011;17573;55.922;37.540;2023-04-03T12:48:18;28.40;;;11.70;;
30862;SDS011;17573;55.922;37.540;2023-04-03T12:50:48;45.33;;;12.90;;
30862;SDS011;17573;55.922;37.540;2023-04-03T12:53:18;31.45;;;12.10;;
30862;SDS011;17573;55.922;37.540;2023-04-03T12:55:45;32.47;;;12.85;;
30862;SDS011;17573;55.922;37.540;2023-04-03T13:01:04;25.80;;;12.60;;
30862;SDS011;17573;55.922;37.540;2023-04-03T13:03:36;27.58;;;12.65;;
30862;SDS011;17573;55.922;37.540;2023-04-03T13:06:04;54.75;;;13.05;;
30862;SDS011;17573;55.922;37.540;2023-04-03T13:08:31;29.20;;;11.35;;
30862;SDS011;17573;55.922;37.540;2023-04-03T13:11:05;22.88;;;10.48;;
30862;SDS011;17573;55.922;37.540;2023-04-03T13:13:35;33.78;;;12.75;;
30862;SDS011;17573;55.922;37.540;2023-04-03T13:16:09;48.80;;;13.95;;
30862;SDS011;17573;55.922;37.540;2023-04-03T13:18:36;27.63;;;11.40;;
30862;SDS011;17573;55.922;37.540;2023-04-03T13:21:04;43.70;;;11.32;;
30862;SDS011;17573;55.922;37.540;2023-04-03T13:23:38;37.33;;;12.15;;
30862;SDS011;17573;55.922;37.540;2023-04-03T13:26:06;24.42;;;11.88;;
30862;SDS011;17573;55.922;37.540;2023-04-03T13:28:32;32.28;;;12.98;;
30862;SDS011;17573;55.922;37.540;2023-04-03T13:33:34;33.05;;;12.52;;
30862;SDS011;17573;55.922;37.540;2023-04-03T13:36:07;28.73;;;12.77;;
30862;SDS011;17573;55.922;37.540;2023-04-03T13:38:39;40.55;;;13.57;;
30862;SDS011;17573;55.922;37.540;2023-04-03T13:41:20;36.63;;;13.13;;
30862;SDS011;17573;55.922;37.540;2023-04-03T13:43:49;26.08;;;11.23;;
30862;SDS011;17573;55.922;37.540;2023-04-03T13:48:42;23.23;;;12.82;;
30862;SDS011;17573;55.922;37.540;2023-04-03T13:53:46;24.92;;;12.85;;
30862;SDS011;17573;55.922;37.540;2023-04-03T13:58:54;34.63;;;15.25;;
30862;SDS011;17573;55.922;37.540;2023-04-03T14:01:33;31.33;;;14.10;;
30862;SDS011;17573;55.922;37.540;2023-04-03T14:04:16;37.25;;;14.50;;
30862;SDS011;17573;55.922;37.540;2023-04-03T14:06:44;34.40;;;14.85;;
30862;SDS011;17573;55.922;37.540;2023-04-03T14:09:11;37.63;;;13.90;;
30862;SDS011;17573;55.922;37.540;2023-04-03T14:11:38;33.55;;;15.00;;
30862;SDS011;17573;55.922;37.540;2023-04-03T14:14:09;33.05;;;13.75;;
30862;SDS011;17573;55.922;37.540;2023-04-03T14:16:39;36.45;;;15.02;;
30862;SDS011;17573;55.922;37.540;2023-04-03T14:19:07;29.65;;;15.73;;
30862;SDS011;17573;55.922;37.540;2023-04-03T14:21:46;28.55;;;15.60;;
30862;SDS011;17573;55.922;37.540;2023-04-03T14:24:12;39.05;;;15.80;;
30862;SDS011;17573;55.922;37.540;2023-04-03T14:26:38;24.52;;;14.25;;
30862;SDS011;17573;55.922;37.540;2023-04-03T14:29:04;31.02;;;14.20;;
30862;SDS011;17573;55.922;37.540;2023-04-03T14:31:29;26.65;;;14.52;;
30862;SDS011;17573;55.922;37.540;2023-04-03T14:33:55;27.02;;;16.20;;
30862;SDS011;17573;55.922;37.540;2023-04-03T14:36:22;30.58;;;15.55;;
30862;SDS011;17573;55.922;37.540;2023-04-03T14:38:50;41.90;;;16.83;;
30862;SDS011;17573;55.922;37.540;2023-04-03T14:41:18;33.00;;;16.38;;
30862;SDS011;17573;55.922;37.540;2023-04-03T14:43:45;28.67;;;14.98;;
30862;SDS011;17573;55.922;37.540;2023-04-03T14:46:12;28.77;;;15.00;;
30862;SDS011;17573;55.922;37.540;2023-04-03T14:48:58;27.23;;;14.70;;
30862;SDS011;17573;55.922;37.540;2023-04-03T14:51:25;30.98;;;14.65;;
30862;SDS011;17573;55.922;37.540;2023-04-03T14:53:51;26.77;;;14.23;;
30862;SDS011;17573;55.922;37.540;2023-04-03T14:56:19;19.38;;;13.63;;
30862;SDS011;17573;55.922;37.540;2023-04-03T14:58:49;26.25;;;13.65;;
30862;SDS011;17573;55.922;37.540;2023-04-03T15:01:16;27.63;;;15.02;;
30862;SDS011;17573;55.922;37.540;2023-04-03T15:03:43;25.50;;;14.85;;
30862;SDS011;17573;55.922;37.540;2023-04-03T15:06:10;40.42;;;16.42;;
30862;SDS011;17573;55.922;37.540;2023-04-03T15:08:37;20.80;;;14.57;;
30862;SDS011;17573;55.922;37.540;2023-04-03T15:11:03;28.77;;;15.75;;
30862;SDS011;17573;55.922;37.540;2023-04-03T15:13:30;29.70;;;14.77;;
30862;SDS011;17573;55.922;37.540;2023-04-03T15:15:56;26.42;;;16.52;;
30862;SDS011;17573;55.922;37.540;2023-04-03T15:18:22;52.75;;;15.80;;
30862;SDS011;17573;55.922;37.540;2023-04-03T15:20:54;31.40;;;18.27;;
30862;SDS011;17573;55.922;37.540;2023-04-03T15:23:20;34.95;;;17.08;;
30862;SDS011;17573;55.922;37.540;2023-04-03T15:25:51;32.97;;;18.83;;
30862;SDS011;17573;55.922;37.540;2023-04-03T15:28:19;34.75;;;19.42;;
30862;SDS011;17573;55.922;37.540;2023-04-03T15:30:49;41.58;;;17.88;;
30862;SDS011;17573;55.922;37.540;2023-04-03T15:33:15;34.22;;;18.17;;
30862;SDS011;17573;55.922;37.540;2023-04-03T15:35:41;45.97;;;20.83;;
30862;SDS011;17573;55.922;37.540;2023-04-03T15:38:08;42.20;;;19.58;;
30862;SDS011;17573;55.922;37.540;2023-04-03T15:40:34;54.72;;;20.35;;
30862;SDS011;17573;55.922;37.540;2023-04-03T15:43:00;38.25;;;18.80;;
30862;SDS011;17573;55.922;37.540;2023-04-03T15:45:28;40.53;;;19.63;;
30862;SDS011;17573;55.922;37.540;2023-04-03T15:47:55;32.13;;;17.02;;
30862;SDS011;17573;55.922;37.540;2023-04-03T15:50:20;41.38;;;17.83;;
30862;SDS011;17573;55.922;37.540;2023-04-03T15:52:48;37.08;;;18.67;;
30862;SDS011;17573;55.922;37.540;2023-04-03T15:55:22;38.97;;;20.02;;
30862;SDS011;17573;55.922;37.540;2023-04-03T15:57:50;41.03;;;17.50;;
30862;SDS011;17573;55.922;37.540;2023-04-03T16:00:16;25.35;;;16.77;;
30862;SDS011;17573;55.922;37.540;2023-04-03T16:02:42;29.92;;;17.48;;
30862;SDS011;17573;55.922;37.540;2023-04-03T16:05:10;38.28;;;18.25;;
30862;SDS011;17573;55.922;37.540;2023-04-03T16:07:36;33.85;;;17.40;;
30862;SDS011;17573;55.922;37.540;2023-04-03T16:10:04;36.17;;;16.63;;